sensor_id;sensor_type;location;lat;lon;timestamp;temperature;humidity
34145;HTU21D;69555;53.014;8.886;2023-07-29T00:02:12;20.01;92.54
34145;HTU21D;69555;53.014;8.886;2023-07-29T00:04:38;20.15;91.85
34145;HTU21D;69555;53.014;8.886;2023-07-29T00:07:03;20.12;91.65
34145;HTU21D;69555;53.014;8.886;2023-07-29T00:09:30;20.14;91.07
34145;HTU21D;69555;53.014;8.886;2023-07-29T00:11:57;19.95;91.74
34145;HTU21D;69555;53.014;8.886;2023-07-29T00:14:23;19.95;91.53
34145;HTU21D;69555;53.014;8.886;2023-07-29T00:16:50;19.87;91.69
34145;HTU21D;69555;53.014;8.886;2023-07-29T00:19:17;19.54;92.99
34145;HTU21D;69555;53.014;8.886;2023-07-29T00:21:43;19.55;92.95
34145;HTU21D;69555;53.014;8.886;2023-07-29T00:24:10;19.69;92.17
34145;HTU21D;69555;53.014;8.886;2023-07-29T00:26:37;19.69;91.94
34145;HTU21D;69555;53.014;8.886;2023-07-29T00:29:03;19.73;91.64
34145;HTU21D;69555;53.014;8.886;2023-07-29T00:31:30;19.62;92.47
34145;HTU21D;69555;53.014;8.886;2023-07-29T00:33:57;19.73;91.76
34145;HTU21D;69555;53.014;8.886;2023-07-29T00:36:24;19.71;91.94
34145;HTU21D;69555;53.014;8.886;2023-07-29T00:38:52;19.28;93.64
34145;HTU21D;69555;53.014;8.886;2023-07-29T00:41:21;19.40;93.04
34145;HTU21D;69555;53.014;8.886;2023-07-29T00:43:48;19.29;93.44
34145;HTU21D;69555;53.014;8.886;2023-07-29T00:46:16;19.40;92.95
34145;HTU21D;69555;53.014;8.886;2023-07-29T00:48:42;19.50;92.46
34145;HTU21D;69555;53.014;8.886;2023-07-29T00:51:08;19.58;91.90
34145;HTU21D;69555;53.014;8.886;2023-07-29T00:53:34;19.59;91.48
34145;HTU21D;69555;53.014;8.886;2023-07-29T00:56:00;19.63;91.18
34145;HTU21D;69555;53.014;8.886;2023-07-29T00:58:26;19.44;91.63
34145;HTU21D;69555;53.014;8.886;2023-07-29T01:00:53;19.35;92.15
34145;HTU21D;69555;53.014;8.886;2023-07-29T01:03:20;19.43;91.60
34145;HTU21D;69555;53.014;8.886;2023-07-29T01:12:29;19.29;91.60
34145;HTU21D;69555;53.014;8.886;2023-07-29T01:15:26;19.09;92.58
34145;HTU21D;69555;53.014;8.886;2023-07-29T01:18:11;18.49;94.82
34145;HTU21D;69555;53.014;8.886;2023-07-29T01:20:43;18.53;95.05
34145;HTU21D;69555;53.014;8.886;2023-07-29T01:23:10;18.63;94.49
34145;HTU21D;69555;53.014;8.886;2023-07-29T01:25:37;18.29;96.39
34145;HTU21D;69555;53.014;8.886;2023-07-29T01:28:03;18.03;97.74
34145;HTU21D;69555;53.014;8.886;2023-07-29T01:30:38;18.03;97.56
34145;HTU21D;69555;53.014;8.886;2023-07-29T01:33:14;17.94;98.13
34145;HTU21D;69555;53.014;8.886;2023-07-29T01:36:03;17.96;98.29
34145;HTU21D;69555;53.014;8.886;2023-07-29T01:38:33;18.10;97.65
34145;HTU21D;69555;53.014;8.886;2023-07-29T01:41:01;18.28;96.54
34145;HTU21D;69555;53.014;8.886;2023-07-29T01:43:29;18.35;96.03
34145;HTU21D;69555;53.014;8.886;2023-07-29T01:45:56;18.50;95.32
34145;HTU21D;69555;53.014;8.886;2023-07-29T01:48:22;18.39;95.69
34145;HTU21D;69555;53.014;8.886;2023-07-29T01:50:50;18.61;94.52
34145;HTU21D;69555;53.014;8.886;2023-07-29T01:53:17;18.69;94.05
34145;HTU21D;69555;53.014;8.886;2023-07-29T01:55:44;18.62;94.04
34145;HTU21D;69555;53.014;8.886;2023-07-29T01:58:10;18.27;95.89
34145;HTU21D;69555;53.014;8.886;2023-07-29T02:00:37;17.95;97.54
34145;HTU21D;69555;53.014;8.886;2023-07-29T02:03:03;17.68;98.89
34145;HTU21D;69555;53.014;8.886;2023-07-29T02:05:29;17.66;99.22
34145;HTU21D;69555;53.014;8.886;2023-07-29T02:07:56;17.53;99.55
34145;HTU21D;69555;53.014;8.886;2023-07-29T02:10:23;17.58;99.38
34145;HTU21D;69555;53.014;8.886;2023-07-29T02:12:50;17.53;99.11
34145;HTU21D;69555;53.014;8.886;2023-07-29T02:15:16;17.50;99.31
34145;HTU21D;69555;53.014;8.886;2023-07-29T02:17:43;17.48;99.19
34145;HTU21D;69555;53.014;8.886;2023-07-29T02:20:10;17.56;99.06
34145;HTU21D;69555;53.014;8.886;2023-07-29T02:22:37;17.47;99.55
34145;HTU21D;69555;53.014;8.886;2023-07-29T02:25:04;17.58;99.01
34145;HTU21D;69555;53.014;8.886;2023-07-29T02:27:31;17.68;98.79
34145;HTU21D;69555;53.014;8.886;2023-07-29T02:29:59;17.54;99.06
34145;HTU21D;69555;53.014;8.886;2023-07-29T02:32:26;17.44;99.37
34145;HTU21D;69555;53.014;8.886;2023-07-29T02:34:53;17.66;98.38
34145;HTU21D;69555;53.014;8.886;2023-07-29T02:37:19;17.62;98.43
34145;HTU21D;69555;53.014;8.886;2023-07-29T02:39:46;17.54;98.64
34145;HTU21D;69555;53.014;8.886;2023-07-29T02:42:13;17.58;98.74
34145;HTU21D;69555;53.014;8.886;2023-07-29T02:44:40;17.80;97.64
34145;HTU21D;69555;53.014;8.886;2023-07-29T02:47:06;17.65;97.97
34145;HTU21D;69555;53.014;8.886;2023-07-29T02:49:33;17.59;98.26
34145;HTU21D;69555;53.014;8.886;2023-07-29T02:51:58;17.56;98.09
34145;HTU21D;69555;53.014;8.886;2023-07-29T02:54:24;17.51;98.15
34145;HTU21D;69555;53.014;8.886;2023-07-29T02:56:50;17.52;98.21
34145;HTU21D;69555;53.014;8.886;2023-07-29T02:59:16;17.67;97.25
34145;HTU21D;69555;53.014;8.886;2023-07-29T03:01:43;17.46;98.23
34145;HTU21D;69555;53.014;8.886;2023-07-29T03:04:09;17.38;98.93
34145;HTU21D;69555;53.014;8.886;2023-07-29T03:06:34;17.30;99.46
34145;HTU21D;69555;53.014;8.886;2023-07-29T03:08:59;17.34;99.03
34145;HTU21D;69555;53.014;8.886;2023-07-29T03:11:25;17.47;98.69
34145;HTU21D;69555;53.014;8.886;2023-07-29T03:13:50;17.55;97.92
34145;HTU21D;69555;53.014;8.886;2023-07-29T03:16:17;17.34;99.13
34145;HTU21D;69555;53.014;8.886;2023-07-29T03:18:43;17.39;99.06
34145;HTU21D;69555;53.014;8.886;2023-07-29T03:21:09;17.53;97.82
34145;HTU21D;69555;53.014;8.886;2023-07-29T03:23:35;17.48;98.03
34145;HTU21D;69555;53.014;8.886;2023-07-29T03:26:02;17.58;97.60
34145;HTU21D;69555;53.014;8.886;2023-07-29T03:28:35;17.67;97.33
34145;HTU21D;69555;53.014;8.886;2023-07-29T03:31:01;17.87;96.40
34145;HTU21D;69555;53.014;8.886;2023-07-29T03:33:27;17.90;96.04
34145;HTU21D;69555;53.014;8.886;2023-07-29T03:35:52;17.93;96.04
34145;HTU21D;69555;53.014;8.886;2023-07-29T03:38:18;17.96;95.94
34145;HTU21D;69555;53.014;8.886;2023-07-29T03:40:43;18.08;95.17
34145;HTU21D;69555;53.014;8.886;2023-07-29T03:43:09;18.06;95.35
34145;HTU21D;69555;53.014;8.886;2023-07-29T03:45:35;18.14;95.07
34145;HTU21D;69555;53.014;8.886;2023-07-29T03:48:01;18.37;94.14
34145;HTU21D;69555;53.014;8.886;2023-07-29T03:50:26;18.24;94.89
34145;HTU21D;69555;53.014;8.886;2023-07-29T03:52:52;18.46;93.87
34145;HTU21D;69555;53.014;8.886;2023-07-29T03:55:18;18.58;93.16
34145;HTU21D;69555;53.014;8.886;2023-07-29T03:57:43;18.72;91.99
34145;HTU21D;69555;53.014;8.886;2023-07-29T04:00:09;18.63;92.76
34145;HTU21D;69555;53.014;8.886;2023-07-29T04:02:34;18.42;93.82
34145;HTU21D;69555;53.014;8.886;2023-07-29T04:05:03;18.34;94.33
34145;HTU21D;69555;53.014;8.886;2023-07-29T04:07:29;18.40;94.02
34145;HTU21D;69555;53.014;8.886;2023-07-29T04:09:55;18.49;93.91
34145;HTU21D;69555;53.014;8.886;2023-07-29T04:12:20;18.70;92.88
34145;HTU21D;69555;53.014;8.886;2023-07-29T04:14:47;18.51;93.75
34145;HTU21D;69555;53.014;8.886;2023-07-29T04:17:12;18.55;93.46
34145;HTU21D;69555;53.014;8.886;2023-07-29T04:19:37;18.59;93.33
34145;HTU21D;69555;53.014;8.886;2023-07-29T04:22:03;18.67;92.43
34145;HTU21D;69555;53.014;8.886;2023-07-29T04:24:28;18.29;94.48
34145;HTU21D;69555;53.014;8.886;2023-07-29T04:26:54;18.43;94.08
34145;HTU21D;69555;53.014;8.886;2023-07-29T04:29:19;18.54;93.47
34145;HTU21D;69555;53.014;8.886;2023-07-29T04:31:45;18.67;92.94
34145;HTU21D;69555;53.014;8.886;2023-07-29T04:34:11;18.74;92.47
34145;HTU21D;69555;53.014;8.886;2023-07-29T04:36:36;18.57;93.69
34145;HTU21D;69555;53.014;8.886;2023-07-29T04:39:01;18.72;93.01
34145;HTU21D;69555;53.014;8.886;2023-07-29T04:41:27;18.85;92.36
34145;HTU21D;69555;53.014;8.886;2023-07-29T04:43:52;18.56;93.64
34145;HTU21D;69555;53.014;8.886;2023-07-29T04:46:18;18.44;94.41
34145;HTU21D;69555;53.014;8.886;2023-07-29T04:48:43;18.32;95.44
34145;HTU21D;69555;53.014;8.886;2023-07-29T04:51:09;18.26;96.03
34145;HTU21D;69555;53.014;8.886;2023-07-29T04:53:34;18.74;93.56
34145;HTU21D;69555;53.014;8.886;2023-07-29T04:56:02;18.82;93.19
34145;HTU21D;69555;53.014;8.886;2023-07-29T04:58:27;18.86;93.17
34145;HTU21D;69555;53.014;8.886;2023-07-29T05:00:55;18.93;92.95
34145;HTU21D;69555;53.014;8.886;2023-07-29T05:03:20;19.06;92.53
34145;HTU21D;69555;53.014;8.886;2023-07-29T05:05:46;19.06;92.68
34145;HTU21D;69555;53.014;8.886;2023-07-29T05:08:11;19.14;91.96
34145;HTU21D;69555;53.014;8.886;2023-07-29T05:10:36;19.03;92.08
34145;HTU21D;69555;53.014;8.886;2023-07-29T05:13:02;19.00;92.72
34145;HTU21D;69555;53.014;8.886;2023-07-29T05:15:27;18.98;93.43
34145;HTU21D;69555;53.014;8.886;2023-07-29T05:17:53;19.15;93.01
34145;HTU21D;69555;53.014;8.886;2023-07-29T05:20:18;19.29;92.59
34145;HTU21D;69555;53.014;8.886;2023-07-29T05:22:44;19.24;93.14
34145;HTU21D;69555;53.014;8.886;2023-07-29T05:25:09;19.14;93.68
34145;HTU21D;69555;53.014;8.886;2023-07-29T05:27:34;19.00;94.67
34145;HTU21D;69555;53.014;8.886;2023-07-29T05:30:00;19.11;94.67
34145;HTU21D;69555;53.014;8.886;2023-07-29T05:32:25;19.09;95.30
34145;HTU21D;69555;53.014;8.886;2023-07-29T05:34:51;19.42;93.87
34145;HTU21D;69555;53.014;8.886;2023-07-29T05:37:16;19.50;93.86
34145;HTU21D;69555;53.014;8.886;2023-07-29T05:39:42;19.67;93.33
34145;HTU21D;69555;53.014;8.886;2023-07-29T05:42:07;19.66;93.24
34145;HTU21D;69555;53.014;8.886;2023-07-29T05:44:33;19.41;94.52
34145;HTU21D;69555;53.014;8.886;2023-07-29T05:46:58;19.52;94.33
34145;HTU21D;69555;53.014;8.886;2023-07-29T05:49:24;19.45;94.68
34145;HTU21D;69555;53.014;8.886;2023-07-29T05:51:49;19.27;95.93
34145;HTU21D;69555;53.014;8.886;2023-07-29T05:54:18;18.94;97.80
34145;HTU21D;69555;53.014;8.886;2023-07-29T05:56:43;18.97;97.87
34145;HTU21D;69555;53.014;8.886;2023-07-29T05:59:09;19.08;97.47
34145;HTU21D;69555;53.014;8.886;2023-07-29T06:01:34;19.05;97.11
34145;HTU21D;69555;53.014;8.886;2023-07-29T06:04:00;19.21;96.70
34145;HTU21D;69555;53.014;8.886;2023-07-29T06:06:26;18.98;97.73
34145;HTU21D;69555;53.014;8.886;2023-07-29T06:08:51;18.80;98.39
34145;HTU21D;69555;53.014;8.886;2023-07-29T06:11:17;18.83;98.44
34145;HTU21D;69555;53.014;8.886;2023-07-29T06:13:42;18.83;98.46
34145;HTU21D;69555;53.014;8.886;2023-07-29T06:16:07;19.00;98.00
34145;HTU21D;69555;53.014;8.886;2023-07-29T06:18:33;18.99;97.70
34145;HTU21D;69555;53.014;8.886;2023-07-29T06:20:58;19.05;97.94
34145;HTU21D;69555;53.014;8.886;2023-07-29T06:23:24;19.10;98.01
34145;HTU21D;69555;53.014;8.886;2023-07-29T06:25:49;19.16;97.65
34145;HTU21D;69555;53.014;8.886;2023-07-29T06:28:14;19.48;96.89
34145;HTU21D;69555;53.014;8.886;2023-07-29T06:30:40;19.42;96.52
34145;HTU21D;69555;53.014;8.886;2023-07-29T06:33:05;19.30;97.02
34145;HTU21D;69555;53.014;8.886;2023-07-29T06:35:31;19.17;97.87
34145;HTU21D;69555;53.014;8.886;2023-07-29T06:37:56;19.07;97.73
34145;HTU21D;69555;53.014;8.886;2023-07-29T06:40:26;19.26;97.26
34145;HTU21D;69555;53.014;8.886;2023-07-29T06:42:53;19.27;96.97
34145;HTU21D;69555;53.014;8.886;2023-07-29T06:45:18;19.51;96.94
34145;HTU21D;69555;53.014;8.886;2023-07-29T06:47:45;19.72;96.06
34145;HTU21D;69555;53.014;8.886;2023-07-29T06:50:11;20.34;93.29
34145;HTU21D;69555;53.014;8.886;2023-07-29T06:52:37;20.64;92.05
34145;HTU21D;69555;53.014;8.886;2023-07-29T06:55:03;20.41;91.83
34145;HTU21D;69555;53.014;8.886;2023-07-29T06:57:29;20.41;91.39
34145;HTU21D;69555;53.014;8.886;2023-07-29T06:59:54;20.17;92.26
34145;HTU21D;69555;53.014;8.886;2023-07-29T07:02:20;20.28;92.22
34145;HTU21D;69555;53.014;8.886;2023-07-29T07:04:45;20.28;92.39
34145;HTU21D;69555;53.014;8.886;2023-07-29T07:07:10;20.05;92.34
34145;HTU21D;69555;53.014;8.886;2023-07-29T07:09:36;19.90;92.89
34145;HTU21D;69555;53.014;8.886;2023-07-29T07:12:01;19.96;93.52
34145;HTU21D;69555;53.014;8.886;2023-07-29T07:14:27;20.05;93.06
34145;HTU21D;69555;53.014;8.886;2023-07-29T07:16:52;19.97;93.38
34145;HTU21D;69555;53.014;8.886;2023-07-29T07:19:18;19.94;92.98
34145;HTU21D;69555;53.014;8.886;2023-07-29T07:21:43;20.09;92.82
34145;HTU21D;69555;53.014;8.886;2023-07-29T07:24:08;20.02;92.56
34145;HTU21D;69555;53.014;8.886;2023-07-29T07:26:34;19.92;92.43
34145;HTU21D;69555;53.014;8.886;2023-07-29T07:28:59;19.68;91.23
34145;HTU21D;69555;53.014;8.886;2023-07-29T07:31:25;19.88;92.23
34145;HTU21D;69555;53.014;8.886;2023-07-29T07:33:50;19.89;92.43
34145;HTU21D;69555;53.014;8.886;2023-07-29T07:36:15;20.01;92.09
34145;HTU21D;69555;53.014;8.886;2023-07-29T07:38:41;19.62;93.44
34145;HTU21D;69555;53.014;8.886;2023-07-29T07:41:06;19.94;92.56
34145;HTU21D;69555;53.014;8.886;2023-07-29T07:43:32;19.98;92.14
34145;HTU21D;69555;53.014;8.886;2023-07-29T07:45:58;19.88;92.27
34145;HTU21D;69555;53.014;8.886;2023-07-29T07:48:24;19.75;91.24
34145;HTU21D;69555;53.014;8.886;2023-07-29T07:50:50;19.80;91.63
34145;HTU21D;69555;53.014;8.886;2023-07-29T07:53:15;19.83;91.47
34145;HTU21D;69555;53.014;8.886;2023-07-29T07:55:41;19.57;92.82
34145;HTU21D;69555;53.014;8.886;2023-07-29T07:58:06;19.55;92.76
34145;HTU21D;69555;53.014;8.886;2023-07-29T08:00:31;19.56;92.76
34145;HTU21D;69555;53.014;8.886;2023-07-29T08:02:57;19.75;92.13
34145;HTU21D;69555;53.014;8.886;2023-07-29T08:05:22;20.32;89.86
34145;HTU21D;69555;53.014;8.886;2023-07-29T08:07:47;20.44;88.53
34145;HTU21D;69555;53.014;8.886;2023-07-29T08:10:13;20.88;85.99
34145;HTU21D;69555;53.014;8.886;2023-07-29T08:12:38;21.15;85.48
34145;HTU21D;69555;53.014;8.886;2023-07-29T08:15:04;20.81;86.35
34145;HTU21D;69555;53.014;8.886;2023-07-29T08:17:30;21.61;83.33
34145;HTU21D;69555;53.014;8.886;2023-07-29T08:19:55;21.81;81.45
34145;HTU21D;69555;53.014;8.886;2023-07-29T08:22:21;21.79;82.49
34145;HTU21D;69555;53.014;8.886;2023-07-29T08:24:46;21.76;82.26
34145;HTU21D;69555;53.014;8.886;2023-07-29T08:27:11;22.66;78.74
34145;HTU21D;69555;53.014;8.886;2023-07-29T08:29:37;23.49;77.63
34145;HTU21D;69555;53.014;8.886;2023-07-29T08:32:02;24.06;72.74
34145;HTU21D;69555;53.014;8.886;2023-07-29T08:34:28;23.58;75.28
34145;HTU21D;69555;53.014;8.886;2023-07-29T08:36:53;22.77;75.46
34145;HTU21D;69555;53.014;8.886;2023-07-29T08:39:20;22.63;78.56
34145;HTU21D;69555;53.014;8.886;2023-07-29T08:41:56;23.67;74.60
34145;HTU21D;69555;53.014;8.886;2023-07-29T08:44:26;22.49;76.91
34145;HTU21D;69555;53.014;8.886;2023-07-29T08:46:56;22.01;78.00
34145;HTU21D;69555;53.014;8.886;2023-07-29T08:49:23;21.87;79.70
34145;HTU21D;69555;53.014;8.886;2023-07-29T08:51:50;22.05;76.56
34145;HTU21D;69555;53.014;8.886;2023-07-29T08:54:18;21.81;79.88
34145;HTU21D;69555;53.014;8.886;2023-07-29T08:56:44;21.39;79.55
34145;HTU21D;69555;53.014;8.886;2023-07-29T08:59:10;21.52;81.56
34145;HTU21D;69555;53.014;8.886;2023-07-29T09:01:38;22.19;78.79
34145;HTU21D;69555;53.014;8.886;2023-07-29T09:04:04;22.48;76.63
34145;HTU21D;69555;53.014;8.886;2023-07-29T09:06:31;22.70;75.60
34145;HTU21D;69555;53.014;8.886;2023-07-29T09:08:56;23.27;74.73
34145;HTU21D;69555;53.014;8.886;2023-07-29T09:11:22;23.57;71.57
34145;HTU21D;69555;53.014;8.886;2023-07-29T09:13:48;23.89;73.06
34145;HTU21D;69555;53.014;8.886;2023-07-29T09:16:14;24.34;72.19
34145;HTU21D;69555;53.014;8.886;2023-07-29T09:18:42;24.21;71.91
34145;HTU21D;69555;53.014;8.886;2023-07-29T09:21:08;24.01;72.96
34145;HTU21D;69555;53.014;8.886;2023-07-29T09:23:43;24.49;69.32
34145;HTU21D;69555;53.014;8.886;2023-07-29T09:26:09;23.84;72.49
34145;HTU21D;69555;53.014;8.886;2023-07-29T09:28:40;23.36;73.05
34145;HTU21D;69555;53.014;8.886;2023-07-29T09:31:06;23.52;72.81
34145;HTU21D;69555;53.014;8.886;2023-07-29T09:33:35;23.56;72.81
34145;HTU21D;69555;53.014;8.886;2023-07-29T09:36:14;23.15;73.86
34145;HTU21D;69555;53.014;8.886;2023-07-29T09:38:39;22.96;74.26
34145;HTU21D;69555;53.014;8.886;2023-07-29T09:41:05;23.07;73.60
34145;HTU21D;69555;53.014;8.886;2023-07-29T09:43:32;23.28;74.54
34145;HTU21D;69555;53.014;8.886;2023-07-29T09:46:02;23.23;73.01
34145;HTU21D;69555;53.014;8.886;2023-07-29T09:48:28;23.49;74.17
34145;HTU21D;69555;53.014;8.886;2023-07-29T09:50:54;23.14;73.75
34145;HTU21D;69555;53.014;8.886;2023-07-29T09:53:20;23.84;72.47
34145;HTU21D;69555;53.014;8.886;2023-07-29T09:55:47;24.03;71.45
34145;HTU21D;69555;53.014;8.886;2023-07-29T09:58:22;23.55;70.13
34145;HTU21D;69555;53.014;8.886;2023-07-29T10:00:51;23.08;70.36
34145;HTU21D;69555;53.014;8.886;2023-07-29T10:03:17;23.31;70.87
34145;HTU21D;69555;53.014;8.886;2023-07-29T10:05:44;23.49;68.64
34145;HTU21D;69555;53.014;8.886;2023-07-29T10:08:10;23.28;67.61
34145;HTU21D;69555;53.014;8.886;2023-07-29T10:10:39;23.29;70.58
34145;HTU21D;69555;53.014;8.886;2023-07-29T10:13:07;23.46;68.03
34145;HTU21D;69555;53.014;8.886;2023-07-29T10:15:33;23.01;70.94
34145;HTU21D;69555;53.014;8.886;2023-07-29T10:17:59;23.30;70.13
34145;HTU21D;69555;53.014;8.886;2023-07-29T10:20:24;23.95;66.96
34145;HTU21D;69555;53.014;8.886;2023-07-29T10:22:51;24.29;67.62
34145;HTU21D;69555;53.014;8.886;2023-07-29T10:25:22;24.24;67.06
34145;HTU21D;69555;53.014;8.886;2023-07-29T10:28:00;23.36;68.22
34145;HTU21D;69555;53.014;8.886;2023-07-29T10:30:28;23.66;67.10
34145;HTU21D;69555;53.014;8.886;2023-07-29T10:32:56;23.66;66.89
34145;HTU21D;69555;53.014;8.886;2023-07-29T10:35:23;23.47;66.91
34145;HTU21D;69555;53.014;8.886;2023-07-29T10:37:49;23.64;66.43
34145;HTU21D;69555;53.014;8.886;2023-07-29T10:40:16;23.90;66.39
34145;HTU21D;69555;53.014;8.886;2023-07-29T10:43:00;23.85;66.75
34145;HTU21D;69555;53.014;8.886;2023-07-29T10:45:36;24.06;66.63
34145;HTU21D;69555;53.014;8.886;2023-07-29T10:48:39;23.70;65.13
34145;HTU21D;69555;53.014;8.886;2023-07-29T10:50:51;23.69;66.59
34145;HTU21D;69555;53.014;8.886;2023-07-29T10:53:17;23.46;69.74
34145;HTU21D;69555;53.014;8.886;2023-07-29T10:55:43;23.52;67.95
34145;HTU21D;69555;53.014;8.886;2023-07-29T10:58:14;23.75;69.74
34145;HTU21D;69555;53.014;8.886;2023-07-29T11:00:44;24.15;66.57
34145;HTU21D;69555;53.014;8.886;2023-07-29T11:03:12;24.44;66.37
34145;HTU21D;69555;53.014;8.886;2023-07-29T11:05:50;24.33;63.56
34145;HTU21D;69555;53.014;8.886;2023-07-29T11:08:17;24.62;61.66
34145;HTU21D;69555;53.014;8.886;2023-07-29T11:10:57;24.26;62.01
34145;HTU21D;69555;53.014;8.886;2023-07-29T11:13:35;24.21;66.23
34145;HTU21D;69555;53.014;8.886;2023-07-29T11:16:02;24.08;64.66
34145;HTU21D;69555;53.014;8.886;2023-07-29T11:18:30;23.74;65.73
34145;HTU21D;69555;53.014;8.886;2023-07-29T11:20:56;23.67;66.98
34145;HTU21D;69555;53.014;8.886;2023-07-29T11:23:48;23.87;63.44
34145;HTU21D;69555;53.014;8.886;2023-07-29T11:26:14;23.71;64.20
34145;HTU21D;69555;53.014;8.886;2023-07-29T11:28:42;23.53;64.56
34145;HTU21D;69555;53.014;8.886;2023-07-29T11:31:12;23.87;64.23
34145;HTU21D;69555;53.014;8.886;2023-07-29T11:33:45;24.02;66.67
34145;HTU21D;69555;53.014;8.886;2023-07-29T11:36:19;24.11;62.60
34145;HTU21D;69555;53.014;8.886;2023-07-29T11:38:48;23.87;63.79
34145;HTU21D;69555;53.014;8.886;2023-07-29T11:41:19;23.77;64.35
34145;HTU21D;69555;53.014;8.886;2023-07-29T11:43:45;23.67;63.40
34145;HTU21D;69555;53.014;8.886;2023-07-29T11:46:13;23.50;64.11
34145;HTU21D;69555;53.014;8.886;2023-07-29T11:48:44;23.46;64.66
34145;HTU21D;69555;53.014;8.886;2023-07-29T11:51:12;23.69;64.95
34145;HTU21D;69555;53.014;8.886;2023-07-29T11:53:41;24.16;64.01
34145;HTU21D;69555;53.014;8.886;2023-07-29T11:56:10;23.88;60.67
34145;HTU21D;69555;53.014;8.886;2023-07-29T11:58:37;24.02;62.27
34145;HTU21D;69555;53.014;8.886;2023-07-29T12:01:05;23.50;64.51
34145;HTU21D;69555;53.014;8.886;2023-07-29T12:03:30;23.55;65.23
34145;HTU21D;69555;53.014;8.886;2023-07-29T12:05:56;24.28;63.45
34145;HTU21D;69555;53.014;8.886;2023-07-29T12:08:21;24.59;61.77
34145;HTU21D;69555;53.014;8.886;2023-07-29T12:10:48;25.12;59.44
34145;HTU21D;69555;53.014;8.886;2023-07-29T12:13:14;25.05;62.95
34145;HTU21D;69555;53.014;8.886;2023-07-29T12:15:40;25.14;58.13
34145;HTU21D;69555;53.014;8.886;2023-07-29T12:18:06;24.85;57.91
34145;HTU21D;69555;53.014;8.886;2023-07-29T12:20:31;25.05;59.57
34145;HTU21D;69555;53.014;8.886;2023-07-29T12:22:58;24.97;59.61
34145;HTU21D;69555;53.014;8.886;2023-07-29T12:25:26;24.65;59.43
34145;HTU21D;69555;53.014;8.886;2023-07-29T12:27:52;24.83;59.42
34145;HTU21D;69555;53.014;8.886;2023-07-29T12:30:23;24.83;57.71
34145;HTU21D;69555;53.014;8.886;2023-07-29T12:32:50;24.80;58.98
34145;HTU21D;69555;53.014;8.886;2023-07-29T12:35:15;25.29;61.22
34145;HTU21D;69555;53.014;8.886;2023-07-29T12:37:41;24.47;56.96
34145;HTU21D;69555;53.014;8.886;2023-07-29T12:40:30;24.29;60.32
34145;HTU21D;69555;53.014;8.886;2023-07-29T12:42:55;24.60;61.57
34145;HTU21D;69555;53.014;8.886;2023-07-29T12:45:21;24.99;60.77
34145;HTU21D;69555;53.014;8.886;2023-07-29T12:47:52;25.02;60.38
34145;HTU21D;69555;53.014;8.886;2023-07-29T12:50:17;25.02;60.62
34145;HTU21D;69555;53.014;8.886;2023-07-29T12:52:43;24.70;58.43
34145;HTU21D;69555;53.014;8.886;2023-07-29T12:55:08;24.72;60.60
34145;HTU21D;69555;53.014;8.886;2023-07-29T12:57:38;24.71;60.65
34145;HTU21D;69555;53.014;8.886;2023-07-29T13:00:03;24.26;61.82
34145;HTU21D;69555;53.014;8.886;2023-07-29T13:02:31;24.09;61.48
34145;HTU21D;69555;53.014;8.886;2023-07-29T13:04:57;24.44;61.87
34145;HTU21D;69555;53.014;8.886;2023-07-29T13:07:22;24.84;61.43
34145;HTU21D;69555;53.014;8.886;2023-07-29T13:09:48;25.06;58.45
34145;HTU21D;69555;53.014;8.886;2023-07-29T13:12:13;24.91;58.83
34145;HTU21D;69555;53.014;8.886;2023-07-29T13:14:38;24.83;58.29
34145;HTU21D;69555;53.014;8.886;2023-07-29T13:17:04;24.97;59.11
34145;HTU21D;69555;53.014;8.886;2023-07-29T13:19:29;25.45;58.99
34145;HTU21D;69555;53.014;8.886;2023-07-29T13:21:55;25.40;59.25
34145;HTU21D;69555;53.014;8.886;2023-07-29T13:24:20;25.03;59.40
34145;HTU21D;69555;53.014;8.886;2023-07-29T13:26:46;25.30;58.56
34145;HTU21D;69555;53.014;8.886;2023-07-29T13:29:11;25.13;57.89
34145;HTU21D;69555;53.014;8.886;2023-07-29T13:31:36;25.18;60.51
34145;HTU21D;69555;53.014;8.886;2023-07-29T13:34:02;25.18;59.61
34145;HTU21D;69555;53.014;8.886;2023-07-29T13:36:27;25.52;60.91
34145;HTU21D;69555;53.014;8.886;2023-07-29T13:38:52;25.69;57.91
34145;HTU21D;69555;53.014;8.886;2023-07-29T13:41:18;26.02;58.80
34145;HTU21D;69555;53.014;8.886;2023-07-29T13:43:43;26.05;57.87
34145;HTU21D;69555;53.014;8.886;2023-07-29T13:46:09;25.97;58.41
34145;HTU21D;69555;53.014;8.886;2023-07-29T13:48:34;26.32;60.25
34145;HTU21D;69555;53.014;8.886;2023-07-29T13:51:01;26.09;57.83
34145;HTU21D;69555;53.014;8.886;2023-07-29T13:53:27;26.19;54.55
34145;HTU21D;69555;53.014;8.886;2023-07-29T13:55:52;26.22;55.33
34145;HTU21D;69555;53.014;8.886;2023-07-29T13:58:18;26.62;55.39
34145;HTU21D;69555;53.014;8.886;2023-07-29T14:00:43;26.18;55.07
34145;HTU21D;69555;53.014;8.886;2023-07-29T14:03:09;25.98;55.10
34145;HTU21D;69555;53.014;8.886;2023-07-29T14:05:34;25.78;55.23
34145;HTU21D;69555;53.014;8.886;2023-07-29T14:08:00;25.76;55.12
34145;HTU21D;69555;53.014;8.886;2023-07-29T14:10:25;25.78;55.44
34145;HTU21D;69555;53.014;8.886;2023-07-29T14:12:51;25.54;56.37
34145;HTU21D;69555;53.014;8.886;2023-07-29T14:15:16;25.49;56.63
34145;HTU21D;69555;53.014;8.886;2023-07-29T14:17:42;25.23;57.66
34145;HTU21D;69555;53.014;8.886;2023-07-29T14:20:08;25.13;59.65
34145;HTU21D;69555;53.014;8.886;2023-07-29T14:22:35;25.36;59.24
34145;HTU21D;69555;53.014;8.886;2023-07-29T14:25:00;25.77;59.74
34145;HTU21D;69555;53.014;8.886;2023-07-29T14:27:26;25.52;55.98
34145;HTU21D;69555;53.014;8.886;2023-07-29T14:29:51;25.58;59.19
34145;HTU21D;69555;53.014;8.886;2023-07-29T14:32:17;25.75;53.95
34145;HTU21D;69555;53.014;8.886;2023-07-29T14:34:42;25.17;57.67
34145;HTU21D;69555;53.014;8.886;2023-07-29T14:37:08;24.97;58.69
34145;HTU21D;69555;53.014;8.886;2023-07-29T14:39:33;25.10;59.70
34145;HTU21D;69555;53.014;8.886;2023-07-29T14:41:58;25.59;57.64
34145;HTU21D;69555;53.014;8.886;2023-07-29T14:44:24;25.50;57.96
34145;HTU21D;69555;53.014;8.886;2023-07-29T14:46:52;25.49;58.22
34145;HTU21D;69555;53.014;8.886;2023-07-29T14:49:18;25.40;59.76
34145;HTU21D;69555;53.014;8.886;2023-07-29T14:51:44;25.35;57.46
34145;HTU21D;69555;53.014;8.886;2023-07-29T14:54:09;24.98;58.80
34145;HTU21D;69555;53.014;8.886;2023-07-29T14:56:34;24.89;59.06
34145;HTU21D;69555;53.014;8.886;2023-07-29T14:59:00;25.12;59.15
34145;HTU21D;69555;53.014;8.886;2023-07-29T15:01:25;24.99;57.71
34145;HTU21D;69555;53.014;8.886;2023-07-29T15:03:51;25.15;57.00
34145;HTU21D;69555;53.014;8.886;2023-07-29T15:06:16;24.98;56.82
34145;HTU21D;69555;53.014;8.886;2023-07-29T15:08:41;25.14;58.23
34145;HTU21D;69555;53.014;8.886;2023-07-29T15:11:07;24.93;58.70
34145;HTU21D;69555;53.014;8.886;2023-07-29T15:13:32;24.76;58.61
34145;HTU21D;69555;53.014;8.886;2023-07-29T15:15:58;24.54;59.89
34145;HTU21D;69555;53.014;8.886;2023-07-29T15:18:23;24.48;62.43
34145;HTU21D;69555;53.014;8.886;2023-07-29T15:20:49;24.50;60.28